createdAt,value
2023-01-17T00:02:05.823Z,95.77
2023-01-17T00:05:30.649Z,95.92
2023-01-17T00:08:50.837Z,95.45
2023-01-17T00:11:53.493Z,96.22
2023-01-17T00:14:57.728Z,96.17
2023-01-17T00:18:00.703Z,96.39
2023-01-17T00:21:22.239Z,96.37
2023-01-17T00:24:42.209Z,96.43
2023-01-17T00:27:43.652Z,96.42
2023-01-17T00:30:45.439Z,97.01
2023-01-17T00:33:46.899Z,96.65
2023-01-17T00:36:49.696Z,96.32
2023-01-17T00:39:51.222Z,96.49
2023-01-17T08:56:08.359Z,100.00
2023-01-17T08:59:11.926Z,100.00
2023-01-17T09:02:15.817Z,100.00
2023-01-17T09:05:18.308Z,100.00
2023-01-17T09:08:20.780Z,100.00
2023-01-17T09:11:24.610Z,100.00
2023-01-17T09:14:27.250Z,100.00
2023-01-17T09:17:29.795Z,100.00
2023-01-17T09:36:59.734Z,100.00
2023-01-17T09:40:02.253Z,100.00
2023-01-17T09:43:08.761Z,100.00
2023-01-17T09:46:22.461Z,100.00
2023-01-17T10:01:19.445Z,100.00
2023-01-17T10:04:45.738Z,100.00
2023-01-17T10:08:04.805Z,100.00
2023-01-17T10:11:24.755Z,100.00
2023-01-17T10:25:55.543Z,100.00
2023-01-17T10:29:03.436Z,100.00
2023-01-17T10:32:06.731Z,100.00
2023-01-17T10:35:21.107Z,100.00
2023-01-17T10:38:30.897Z,100.00
2023-01-17T10:41:39.551Z,100.00
2023-01-17T10:44:49.140Z,100.00
2023-01-17T10:48:02.288Z,100.00
2023-01-17T10:51:14.616Z,100.00
2023-01-17T10:54:38.688Z,100.00
2023-01-17T10:57:44.276Z,100.00
2023-01-17T11:00:51.017Z,100.00
2023-01-17T11:03:55.323Z,100.00
2023-01-17T11:07:12.844Z,100.00
2023-01-17T11:10:36.600Z,100.00
2023-01-17T11:13:40.459Z,100.00
2023-01-17T11:16:44.161Z,100.00
2023-01-17T11:19:51.208Z,100.00
2023-01-17T11:23:12.534Z,100.00
2023-01-17T11:26:25.514Z,100.00
2023-01-17T11:29:36.009Z,100.00
2023-01-17T11:32:39.385Z,99.55
2023-01-17T11:35:45.698Z,98.42
2023-01-17T11:39:03.224Z,96.25
2023-01-17T11:42:27.554Z,96.77
2023-01-17T11:45:32.606Z,96.53
2023-01-17T11:48:38.249Z,95.93
2023-01-17T11:51:43.582Z,96.35
2023-01-17T11:54:48.797Z,97.65
2023-01-17T11:57:51.907Z,98.86
2023-01-17T12:01:02.244Z,98.86
2023-01-17T12:04:23.003Z,99.66
2023-01-17T12:07:35.530Z,97.13
2023-01-17T12:10:50.479Z,97.96
2023-01-17T12:14:05.526Z,97.16
2023-01-17T12:17:23.711Z,96.96
2023-01-17T12:20:32.877Z,97.49
2023-01-17T12:23:51.658Z,99.77
2023-01-17T12:27:03.297Z,100.00
2023-01-17T12:30:19.473Z,100.00
2023-01-17T12:33:28.819Z,99.71
2023-01-17T12:36:43.446Z,100.00
2023-01-17T12:39:54.244Z,99.05
2023-01-17T12:43:03.872Z,99.65
2023-01-17T12:46:13.638Z,99.52
2023-01-17T12:49:25.269Z,100.00
2023-01-17T12:52:39.338Z,100.00
2023-01-17T12:55:51.959Z,100.00
2023-01-17T13:28:13.306Z,100.00
2023-01-17T13:31:36.746Z,100.00
2023-01-17T13:34:53.309Z,100.00
2023-01-17T13:38:28.981Z,100.00
2023-01-17T13:41:46.509Z,100.00
2023-01-17T13:50:58.377Z,100.00
2023-01-17T14:26:36.575Z,100.00
2023-01-17T14:29:58.967Z,100.00
2023-01-17T14:33:17.687Z,100.00
2023-01-17T14:36:30.359Z,100.00
2023-01-17T14:39:32.982Z,99.60
2023-01-17T14:42:37.503Z,99.57
2023-01-17T14:45:40.609Z,100.00
2023-01-17T14:48:43.268Z,100.00
